createdAt,value
2019-05-06T00:00:53.378Z,101022.38
2019-05-06T00:03:07.777Z,101023.64
2019-05-06T00:05:34.097Z,101020.06
2019-05-06T00:08:00.154Z,101028.48
2019-05-06T00:10:27.537Z,101027.59
2019-05-06T00:12:54.209Z,101028.00
2019-05-06T00:15:23.454Z,101025.82
2019-05-06T00:17:49.298Z,101026.22
2019-05-06T00:20:15.327Z,101031.45
2019-05-06T00:22:43.492Z,101021.75
2019-05-06T00:25:10.877Z,101021.70
2019-05-06T00:27:38.626Z,101017.78
2019-05-06T00:30:05.489Z,101022.25
2019-05-06T00:32:31.613Z,101019.66
2019-05-06T00:34:57.596Z,101030.65
2019-05-06T00:37:24.108Z,101035.08
2019-05-06T00:43:18.524Z,101032.43
2019-05-06T00:49:20.864Z,101027.14
2019-05-06T00:51:46.666Z,101037.72
2019-05-06T00:54:14.478Z,101036.40
2019-05-06T00:57:04.201Z,101035.52
2019-05-06T00:59:23.920Z,101041.69
2019-05-06T01:05:08.058Z,101049.58
2019-05-06T01:08:14.126Z,101050.07
2019-05-06T01:10:40.065Z,101025.53
2019-05-06T01:13:16.858Z,101056.69
2019-05-06T01:15:44.039Z,101061.98
2019-05-06T01:18:10.104Z,101028.28
2019-05-06T01:20:36.281Z,101066.88
2019-05-06T01:23:03.766Z,101065.08
2019-05-06T01:25:29.891Z,101059.73
2019-05-06T01:27:55.964Z,101047.84
2019-05-06T01:30:24.235Z,101052.66
2019-05-06T01:32:49.742Z,101050.97
2019-05-06T01:35:15.845Z,101058.90
2019-05-06T01:37:44.143Z,101061.55
2019-05-06T01:40:13.900Z,101064.23
2019-05-06T01:42:47.455Z,101062.55
2019-05-06T01:45:14.157Z,101060.77
2019-05-06T01:47:40.057Z,101059.84
2019-05-06T01:50:06.358Z,101064.73
2019-05-06T01:52:34.360Z,101055.48
2019-05-06T01:55:00.099Z,101057.68
2019-05-06T01:57:26.199Z,101059.90
2019-05-06T01:59:53.897Z,101055.53
2019-05-06T02:02:20.574Z,101060.39
2019-05-06T02:04:46.579Z,101059.60
2019-05-06T02:07:14.316Z,101060.92
2019-05-06T02:09:40.239Z,101070.18
2019-05-06T02:12:06.408Z,101066.27
2019-05-06T02:14:34.132Z,101071.95
2019-05-06T02:17:00.071Z,101075.91
2019-05-06T02:19:26.135Z,101067.59
2019-05-06T02:21:54.376Z,101069.75
2019-05-06T02:24:24.213Z,101071.66
2019-05-06T02:26:50.216Z,101077.44
2019-05-06T02:29:18.002Z,101080.03
2019-05-06T02:31:48.370Z,101084.39
2019-05-06T02:34:16.315Z,101080.43
2019-05-06T02:36:45.550Z,101084.34
2019-05-06T02:39:14.090Z,101092.70
2019-05-06T02:41:39.609Z,101085.17
2019-05-06T02:44:09.913Z,101096.97
2019-05-06T02:46:34.059Z,101096.05
2019-05-06T02:49:03.907Z,101092.91
2019-05-06T02:51:33.130Z,101093.28
2019-05-06T02:53:57.807Z,101092.80
2019-05-06T02:56:24.173Z,101096.77
2019-05-06T02:58:53.162Z,101103.86
2019-05-06T03:01:17.821Z,101103.38
2019-05-06T03:03:43.916Z,101102.54
2019-05-06T03:06:12.980Z,101096.36
2019-05-06T03:08:37.543Z,101103.86
2019-05-06T03:11:04.293Z,101103.38
2019-05-06T03:13:30.478Z,101099.02
2019-05-06T03:15:56.588Z,101104.80
2019-05-06T03:18:23.637Z,101099.52
2019-05-06T03:20:53.292Z,101100.44
2019-05-06T03:23:23.725Z,101099.56
2019-05-06T03:25:49.052Z,101097.07
2019-05-06T03:28:14.977Z,101107.25
2019-05-06T03:30:45.183Z,101106.77
2019-05-06T03:33:36.254Z,101102.31
2019-05-06T03:35:52.288Z,101108.00
2019-05-06T03:38:04.332Z,101106.23
2019-05-06T03:40:36.132Z,101106.67
2019-05-06T03:42:58.184Z,101107.50
2019-05-06T03:45:43.071Z,101121.59
2019-05-06T03:48:13.771Z,101115.38
2019-05-06T03:50:39.636Z,101114.49
2019-05-06T03:53:05.783Z,101112.23
2019-05-06T03:55:34.243Z,101116.59
2019-05-06T03:58:03.802Z,101109.98
2019-05-06T04:00:29.586Z,101103.31
2019-05-06T04:02:55.459Z,101113.05
2019-05-06T04:05:23.886Z,101114.38
2019-05-06T04:07:49.536Z,101115.22
2019-05-06T04:10:15.490Z,101117.47
2019-05-06T04:12:43.446Z,101118.79
2019-05-06T04:15:09.791Z,101119.08
2019-05-06T04:17:46.264Z,101118.14
2019-05-06T04:20:16.723Z,101116.23
2019-05-06T04:22:44.581Z,101117.45
2019-05-06T04:25:13.965Z,101121.32
2019-05-06T04:27:43.018Z,101124.23
2019-05-06T04:30:09.096Z,101123.66
2019-05-06T04:32:35.170Z,101121.78
2019-05-06T04:35:04.106Z,101120.78
2019-05-06T04:37:29.021Z,101121.52
2019-05-06T04:39:55.015Z,101120.09
2019-05-06T04:42:23.273Z,101125.81
2019-05-06T04:44:48.853Z,101128.36
2019-05-06T04:47:14.977Z,101126.00
2019-05-06T04:49:43.420Z,101122.31
2019-05-06T04:52:08.757Z,101127.55
2019-05-06T04:54:34.751Z,101127.11
2019-05-06T04:57:00.844Z,101132.30
2019-05-06T04:59:26.920Z,101131.37
2019-05-06T05:01:53.656Z,101124.25
2019-05-06T05:04:28.512Z,101130.41
2019-05-06T05:06:47.445Z,101128.11
2019-05-06T05:09:17.113Z,101131.58
2019-05-06T05:11:45.858Z,101123.98
2019-05-06T05:14:13.719Z,101127.05
2019-05-06T05:16:47.473Z,101127.89
2019-05-06T05:19:16.662Z,101126.46
2019-05-06T05:21:42.916Z,101135.73
2019-05-06T05:24:09.084Z,101123.42
2019-05-06T05:26:35.829Z,101127.34
2019-05-06T05:29:02.799Z,101127.78
2019-05-06T05:31:29.102Z,101131.70
2019-05-06T05:33:55.077Z,101132.52
2019-05-06T05:36:23.054Z,101127.12
2019-05-06T05:38:49.003Z,101125.73
2019-05-06T05:41:14.974Z,101089.61
2019-05-06T05:43:43.051Z,101125.46
2019-05-06T05:46:09.354Z,101131.07
2019-05-06T05:48:37.237Z,101138.42
2019-05-06T05:51:03.406Z,101133.89
2019-05-06T05:53:29.548Z,101132.52
2019-05-06T05:55:55.412Z,101134.23
2019-05-06T05:58:24.560Z,101129.75
2019-05-06T06:00:49.358Z,101131.52
2019-05-06T06:03:15.214Z,101132.40
2019-05-06T06:05:42.788Z,101132.80
2019-05-06T06:08:09.010Z,101135.81
2019-05-06T06:10:52.402Z,101133.50
2019-05-06T06:13:18.750Z,101141.73
2019-05-06T06:16:03.152Z,101144.27
2019-05-06T06:18:46.514Z,101145.53
2019-05-06T06:21:23.107Z,101148.23
2019-05-06T06:23:46.771Z,101153.37
2019-05-06T06:26:12.735Z,101151.48
2019-05-06T06:28:38.719Z,101156.16
2019-05-06T06:31:23.012Z,101155.98
2019-05-06T06:33:52.962Z,101155.81
2019-05-06T06:36:26.724Z,101154.82
2019-05-06T06:38:57.424Z,101155.19
2019-05-06T06:41:23.370Z,101161.75
2019-05-06T06:43:52.476Z,101163.41
2019-05-06T06:46:18.739Z,101168.09
2019-05-06T06:48:44.696Z,101167.47
2019-05-06T06:51:12.378Z,101165.09
2019-05-06T06:53:38.325Z,101169.34
2019-05-06T06:56:22.031Z,101176.67
2019-05-06T06:59:06.706Z,101175.22
2019-05-06T07:01:37.453Z,101176.43
2019-05-06T07:04:10.489Z,101178.09
2019-05-06T07:06:37.995Z,101183.75
2019-05-06T07:09:05.556Z,101182.31
2019-05-06T07:11:33.064Z,101191.53
2019-05-06T07:13:59.223Z,101191.87
2019-05-06T07:16:25.220Z,101198.86
2019-05-06T07:18:52.602Z,101203.36
2019-05-06T07:21:23.467Z,101206.46
2019-05-06T07:23:49.497Z,101211.38
2019-05-06T07:26:17.341Z,101212.00
2019-05-06T07:28:43.802Z,101217.88
2019-05-06T07:31:18.789Z,101211.09
2019-05-06T07:33:37.702Z,101213.92
2019-05-06T07:36:03.563Z,101216.30
2019-05-06T07:38:29.653Z,101216.30
2019-05-06T07:40:57.419Z,101219.67
2019-05-06T07:43:34.181Z,101220.70
2019-05-06T07:46:18.426Z,101219.63
2019-05-06T07:48:44.578Z,101220.23
2019-05-06T07:51:12.418Z,101224.91
2019-05-06T07:53:38.411Z,101225.61
2019-05-06T07:56:04.599Z,101227.02
2019-05-06T07:58:32.255Z,101232.16
2019-05-06T08:00:58.255Z,101232.91
2019-05-06T08:03:24.330Z,101237.83
2019-05-06T08:05:57.965Z,101239.27
2019-05-06T08:08:17.992Z,101241.68
2019-05-06T08:10:44.055Z,101248.44
2019-05-06T08:13:10.038Z,101243.30
2019-05-06T08:15:35.898Z,101253.14
2019-05-06T08:18:03.514Z,101252.77
2019-05-06T08:20:38.322Z,101257.63
2019-05-06T08:23:13.220Z,101258.50
2019-05-06T08:25:43.622Z,101259.47
2019-05-06T08:28:09.496Z,101259.52
2019-05-06T08:30:35.692Z,101260.45
2019-05-06T08:33:02.192Z,101266.16
2019-05-06T08:35:28.122Z,101270.62
2019-05-06T08:37:54.264Z,101273.27
2019-05-06T08:40:22.549Z,101275.50
2019-05-06T08:42:47.892Z,101271.30
2019-05-06T08:45:13.989Z,101278.44
2019-05-06T08:47:42.302Z,101269.72
2019-05-06T08:50:12.848Z,101280.81
2019-05-06T08:52:57.232Z,101272.38
2019-05-06T08:55:32.527Z,101274.19
2019-05-06T08:57:58.658Z,101275.96
2019-05-06T09:00:24.643Z,101270.09
2019-05-06T09:02:52.886Z,101271.75
2019-05-06T09:05:18.455Z,101275.67
2019-05-06T09:07:46.210Z,101277.76
2019-05-06T09:10:13.140Z,101282.95
2019-05-06T09:12:39.370Z,101281.51
2019-05-06T09:15:05.335Z,101282.77
2019-05-06T09:17:32.892Z,101282.77
2019-05-06T09:19:58.969Z,101295.77
2019-05-06T09:22:24.835Z,101293.56
2019-05-06T09:24:52.945Z,101297.99
2019-05-06T09:27:22.477Z,101305.89
2019-05-06T09:29:52.196Z,101306.44
2019-05-06T09:32:22.525Z,101310.98
2019-05-06T09:34:52.700Z,101312.36
2019-05-06T09:37:19.695Z,101314.64
2019-05-06T09:39:46.367Z,101315.13
2019-05-06T09:42:13.891Z,101313.86
2019-05-06T09:44:42.527Z,101314.37
2019-05-06T09:47:12.619Z,101324.70
2019-05-06T09:49:39.810Z,101317.30
2019-05-06T09:52:05.774Z,101316.14
2019-05-06T09:54:48.665Z,101321.55
2019-05-06T09:57:16.505Z,101325.25
2019-05-06T09:59:42.366Z,101326.42
2019-05-06T10:02:09.119Z,101331.94
2019-05-06T10:04:35.126Z,101327.84
2019-05-06T10:07:02.680Z,101331.20
2019-05-06T10:09:32.464Z,101336.95
2019-05-06T10:11:58.205Z,101330.28
2019-05-06T10:14:24.142Z,101335.08
2019-05-06T10:16:52.168Z,101332.82
2019-05-06T10:19:17.958Z,101337.91
2019-05-06T10:21:43.798Z,101333.77
2019-05-06T10:24:09.870Z,101334.98
2019-05-06T10:26:37.957Z,101334.48
2019-05-06T10:29:05.816Z,101328.14
2019-05-06T10:31:33.889Z,101336.41
2019-05-06T10:34:14.443Z,101339.78
2019-05-06T10:36:53.302Z,101332.94
2019-05-06T10:39:22.893Z,101333.10
2019-05-06T10:41:52.510Z,101328.91
2019-05-06T10:44:26.308Z,101328.67
2019-05-06T10:46:52.862Z,101323.56
2019-05-06T10:49:18.908Z,101327.27
2019-05-06T10:51:52.984Z,101333.72
2019-05-06T10:54:18.929Z,101337.05
2019-05-06T10:56:53.150Z,101338.63
2019-05-06T10:59:16.531Z,101338.02
2019-05-06T11:01:44.382Z,101344.21
2019-05-06T11:04:10.214Z,101339.89
2019-05-06T11:06:36.334Z,101350.45
2019-05-06T11:09:04.485Z,101347.48
2019-05-06T11:11:37.716Z,101344.89
2019-05-06T11:13:58.274Z,101356.84
2019-05-06T11:16:24.166Z,101357.66
2019-05-06T11:18:50.066Z,101357.20
2019-05-06T11:21:16.042Z,101358.05
2019-05-06T11:23:41.950Z,101361.19
2019-05-06T11:26:07.900Z,101363.84
2019-05-06T11:28:42.654Z,101362.57
2019-05-06T11:31:14.133Z,101362.20
2019-05-06T11:33:42.464Z,101365.40
2019-05-06T11:36:12.249Z,101358.00
2019-05-06T11:38:38.224Z,101359.72
2019-05-06T11:41:04.085Z,101360.94
2019-05-06T11:43:32.327Z,101358.59
2019-05-06T11:45:57.776Z,101361.91
2019-05-06T11:48:23.646Z,101361.41
2019-05-06T11:50:51.692Z,101358.58
2019-05-06T11:53:17.587Z,101356.74
2019-05-06T11:55:43.451Z,101354.48
2019-05-06T11:58:27.922Z,101355.75
2019-05-06T12:00:53.876Z,101359.22
2019-05-06T12:03:19.729Z,101357.84
2019-05-06T12:05:45.689Z,101351.53
2019-05-06T12:08:15.205Z,101356.27
2019-05-06T12:10:39.497Z,101345.56
2019-05-06T12:13:05.562Z,101348.05
2019-05-06T12:15:31.441Z,101346.14
2019-05-06T12:17:57.401Z,101343.25
2019-05-06T12:20:23.465Z,101348.44
2019-05-06T12:22:49.315Z,101350.03
2019-05-06T12:25:15.793Z,101347.68
2019-05-06T12:27:44.878Z,101343.51
2019-05-06T12:30:19.657Z,101344.78
2019-05-06T12:32:53.553Z,101345.98
2019-05-06T12:35:19.454Z,101347.19
2019-05-06T12:37:47.283Z,101349.66
2019-05-06T12:40:13.449Z,101343.22
2019-05-06T12:42:43.183Z,101343.45
2019-05-06T12:45:13.039Z,101339.66
2019-05-06T12:47:42.621Z,101348.39
2019-05-06T12:50:08.417Z,101344.40
2019-05-06T12:52:34.291Z,101343.01
2019-05-06T12:55:16.447Z,101339.73
2019-05-06T12:57:28.051Z,101342.75
2019-05-06T12:59:53.956Z,101337.89
2019-05-06T13:02:19.976Z,101347.26
2019-05-06T13:04:55.303Z,101348.39
2019-05-06T13:07:15.431Z,101351.63
2019-05-06T13:09:43.303Z,101351.69
2019-05-06T13:12:12.337Z,101358.91
2019-05-06T13:14:38.254Z,101356.80
2019-05-06T13:17:04.332Z,101358.19
2019-05-06T13:19:32.235Z,101353.45
2019-05-06T13:21:57.983Z,101353.13
2019-05-06T13:24:24.034Z,101353.22
2019-05-06T13:26:50.060Z,101346.64
2019-05-06T13:29:17.822Z,101338.40
2019-05-06T13:31:44.003Z,101340.30
2019-05-06T13:34:11.778Z,101328.47
2019-05-06T13:36:37.857Z,101332.95
2019-05-06T13:39:13.688Z,101337.32
2019-05-06T13:41:32.822Z,101330.67
2019-05-06T13:44:13.215Z,101333.72
2019-05-06T13:46:41.187Z,101332.82
2019-05-06T13:49:09.072Z,101330.22
2019-05-06T13:51:37.128Z,101331.55
2019-05-06T13:54:03.429Z,101328.08
2019-05-06T13:56:29.431Z,101333.72
2019-05-06T13:58:55.433Z,101331.43
2019-05-06T14:01:35.275Z,101332.63
2019-05-06T14:04:03.758Z,101332.02
2019-05-06T14:06:29.003Z,101330.11
2019-05-06T14:08:54.883Z,101338.45
2019-05-06T14:11:22.915Z,101331.38
2019-05-06T14:13:48.507Z,101332.71
2019-05-06T14:16:14.353Z,101336.44
2019-05-06T14:18:42.603Z,101340.00
2019-05-06T14:21:08.155Z,101333.84
2019-05-06T14:23:34.216Z,101329.85
2019-05-06T14:26:04.210Z,101333.02
2019-05-06T14:28:32.433Z,101330.04
2019-05-06T14:31:03.377Z,101327.51
2019-05-06T14:33:29.270Z,101328.02
2019-05-06T14:35:55.210Z,101324.91
2019-05-06T14:38:24.537Z,101324.48
2019-05-06T14:41:08.085Z,101321.50
2019-05-06T14:43:33.909Z,101324.97
2019-05-06T14:45:59.852Z,101319.98
2019-05-06T14:48:25.703Z,101316.00
2019-05-06T14:50:56.156Z,101315.19
2019-05-06T14:53:19.551Z,101311.56
2019-05-06T14:55:45.597Z,101316.75
2019-05-06T14:58:12.068Z,101310.05
2019-05-06T15:00:38.174Z,101306.00
2019-05-06T15:03:04.195Z,101309.92
2019-05-06T15:05:32.213Z,101302.41
2019-05-06T15:07:57.826Z,101307.45
2019-05-06T15:10:26.343Z,101302.66
2019-05-06T15:12:53.411Z,101301.84
2019-05-06T15:15:19.417Z,101309.42
2019-05-06T15:17:45.329Z,101301.45
2019-05-06T15:20:12.091Z,101299.44
2019-05-06T15:22:38.027Z,101295.64
2019-05-06T15:25:04.889Z,101291.27
2019-05-06T15:27:31.615Z,101289.48
2019-05-06T15:30:03.134Z,101289.55
2019-05-06T15:32:30.047Z,101288.16
2019-05-06T15:35:14.305Z,101281.84
2019-05-06T15:37:53.270Z,101294.19
2019-05-06T15:40:30.972Z,101287.55
2019-05-06T15:42:46.551Z,101281.91
2019-05-06T15:45:12.766Z,101277.72
2019-05-06T15:47:38.894Z,101271.23
2019-05-06T15:50:05.854Z,101278.54
2019-05-06T15:52:32.452Z,101281.26
2019-05-06T15:54:58.899Z,101278.75
2019-05-06T15:57:24.772Z,101272.23
2019-05-06T15:59:52.998Z,101275.13
2019-05-06T16:02:18.482Z,101285.81
2019-05-06T16:04:44.360Z,101281.53
2019-05-06T16:07:12.552Z,101281.08
2019-05-06T16:09:38.185Z,101276.09
2019-05-06T16:12:04.158Z,101287.66
2019-05-06T16:14:34.535Z,101288.92
2019-05-06T16:16:57.940Z,101295.11
2019-05-06T16:19:23.924Z,101294.17
2019-05-06T16:21:52.122Z,101303.41
2019-05-06T16:24:22.092Z,101304.73
2019-05-06T16:26:48.076Z,101299.81
2019-05-06T16:29:14.066Z,101298.48
2019-05-06T16:31:42.152Z,101294.17
2019-05-06T16:34:07.707Z,101289.31
2019-05-06T16:36:33.616Z,101286.27
2019-05-06T16:38:59.588Z,101288.59
2019-05-06T16:41:25.459Z,101281.08
2019-05-06T16:43:52.381Z,101283.67
2019-05-06T16:46:18.548Z,101285.76
2019-05-06T16:48:45.467Z,101284.48
2019-05-06T16:51:12.571Z,101291.13
2019-05-06T16:53:38.680Z,101292.78
2019-05-06T16:56:06.564Z,101300.23
2019-05-06T16:58:54.891Z,101295.32
2019-05-06T17:01:22.087Z,101298.85
2019-05-06T17:03:52.423Z,101293.72
2019-05-06T17:06:23.086Z,101287.20
2019-05-06T17:08:49.203Z,101289.98
2019-05-06T17:11:27.104Z,101294.17
2019-05-06T17:13:44.685Z,101292.69
2019-05-06T17:16:10.755Z,101288.38
2019-05-06T17:18:36.627Z,101288.43
2019-05-06T17:21:02.923Z,101291.98
2019-05-06T17:23:28.894Z,101288.94
2019-05-06T17:25:54.845Z,101289.56
2019-05-06T17:28:22.741Z,101292.28
2019-05-06T17:30:51.692Z,101288.72
2019-05-06T17:33:36.901Z,101290.89
2019-05-06T17:36:03.851Z,101288.36
2019-05-06T17:38:49.639Z,101285.77
2019-05-06T17:41:15.615Z,101284.44
2019-05-06T17:43:43.876Z,101284.92
2019-05-06T17:46:12.481Z,101283.71
2019-05-06T17:48:45.774Z,101284.67
2019-05-06T17:51:19.553Z,101279.98
2019-05-06T17:53:55.296Z,101280.16
2019-05-06T17:56:22.298Z,101283.58
2019-05-06T17:58:48.422Z,101287.79
2019-05-06T18:01:16.384Z,101283.55
2019-05-06T18:03:42.439Z,101283.61
2019-05-06T18:06:13.655Z,101277.03
2019-05-06T18:08:36.244Z,101276.59
2019-05-06T18:11:02.326Z,101274.81
2019-05-06T18:13:28.222Z,101264.31
2019-05-06T18:15:54.166Z,101267.05
2019-05-06T18:18:22.179Z,101264.56
2019-05-06T18:20:47.866Z,101263.29
2019-05-06T18:23:13.805Z,101265.16
2019-05-06T18:25:39.852Z,101261.23
2019-05-06T18:28:05.723Z,101264.39
2019-05-06T18:30:34.388Z,101265.72
2019-05-06T18:32:59.326Z,101260.52
2019-05-06T18:35:25.172Z,101261.91
2019-05-06T18:37:52.165Z,101258.15
2019-05-06T18:40:18.361Z,101259.70
2019-05-06T18:42:44.215Z,101249.59
2019-05-06T18:45:12.204Z,101262.02
2019-05-06T18:47:38.027Z,101258.98
2019-05-06T18:50:05.633Z,101261.80
2019-05-06T18:52:32.279Z,101259.64
2019-05-06T18:54:58.657Z,101259.25
2019-05-06T18:57:24.708Z,101258.80
2019-05-06T18:59:53.074Z,101268.08
2019-05-06T19:02:18.599Z,101268.13
2019-05-06T19:04:58.199Z,101274.33
2019-05-06T19:07:24.364Z,101273.11
2019-05-06T19:09:55.018Z,101275.02
2019-05-06T19:12:30.288Z,101282.92
2019-05-06T19:14:49.034Z,101280.27
2019-05-06T19:17:14.982Z,101281.64
2019-05-06T19:19:42.645Z,101278.67
2019-05-06T19:22:08.792Z,101287.10
2019-05-06T19:24:34.720Z,101283.63
2019-05-06T19:27:02.089Z,101281.37
2019-05-06T19:29:28.421Z,101288.92
2019-05-06T19:31:54.415Z,101288.05
2019-05-06T19:34:20.364Z,101276.61
2019-05-06T19:36:46.380Z,101277.40
2019-05-06T19:39:12.805Z,101272.05
2019-05-06T19:41:38.757Z,101266.25
2019-05-06T19:44:04.884Z,101261.34
2019-05-06T19:46:32.334Z,101264.00
2019-05-06T19:48:58.454Z,101260.18
2019-05-06T19:51:24.421Z,101259.89
2019-05-06T19:53:50.258Z,101257.80
2019-05-06T19:56:16.251Z,101260.70
2019-05-06T19:58:42.958Z,101266.05
2019-05-06T20:01:09.079Z,101261.69
2019-05-06T20:03:35.020Z,101263.56
2019-05-06T20:06:14.557Z,101267.58
2019-05-06T20:08:48.196Z,101273.75
2019-05-06T20:11:16.145Z,101277.25
2019-05-06T20:13:42.060Z,101275.13
2019-05-06T20:16:08.059Z,101282.30
2019-05-06T20:18:34.064Z,101280.58
2019-05-06T20:20:59.931Z,101280.68
2019-05-06T20:23:26.402Z,101277.61
2019-05-06T20:25:52.356Z,101282.05
2019-05-06T20:28:18.203Z,101284.23
2019-05-06T20:30:44.230Z,101279.51
2019-05-06T20:33:12.292Z,101273.84
2019-05-06T20:35:38.241Z,101276.98
2019-05-06T20:38:04.241Z,101267.41
2019-05-06T20:40:32.457Z,101270.52
2019-05-06T20:42:58.047Z,101276.58
2019-05-06T20:45:24.047Z,101271.19
2019-05-06T20:47:52.309Z,101266.38
2019-05-06T20:50:17.943Z,101266.39
2019-05-06T20:52:43.808Z,101270.36
2019-05-06T20:55:15.204Z,101260.25
2019-05-06T20:57:38.016Z,101263.39
2019-05-06T21:00:07.346Z,101260.80
2019-05-06T21:02:33.011Z,101256.93
2019-05-06T21:04:58.865Z,101255.70
2019-05-06T21:07:24.896Z,101260.95
2019-05-06T21:09:52.509Z,101256.48
2019-05-06T21:12:18.408Z,101252.52
2019-05-06T21:14:44.306Z,101254.73
2019-05-06T21:17:12.428Z,101258.25
2019-05-06T21:19:38.021Z,101254.33
2019-05-06T21:22:03.960Z,101253.94
2019-05-06T21:24:32.033Z,101255.70
2019-05-06T21:26:57.704Z,101259.67
2019-05-06T21:29:23.594Z,101251.78
2019-05-06T21:31:49.535Z,101254.92
2019-05-06T21:34:15.369Z,101256.73
2019-05-06T21:36:42.245Z,101250.56
2019-05-06T21:39:08.457Z,101249.28
2019-05-06T21:41:34.386Z,101243.55
2019-05-06T21:44:02.302Z,101240.02
2019-05-06T21:46:28.237Z,101243.11
2019-05-06T21:48:54.120Z,101245.31
2019-05-06T21:51:21.823Z,101240.90
2019-05-06T21:53:47.845Z,101234.23
2019-05-06T21:56:13.692Z,101236.00
2019-05-06T21:58:39.589Z,101234.13
2019-05-06T22:01:07.202Z,101226.19
2019-05-06T22:03:33.217Z,101235.50
2019-05-06T22:05:59.072Z,101235.50
2019-05-06T22:08:25.091Z,101235.45
2019-05-06T22:10:52.852Z,101232.28
2019-05-06T22:13:18.660Z,101235.35
2019-05-06T22:15:44.826Z,101229.13
2019-05-06T22:18:12.455Z,101230.80
2019-05-06T22:20:57.002Z,101226.73
2019-05-06T22:23:22.849Z,101230.20
2019-05-06T22:25:48.719Z,101235.00
2019-05-06T22:28:14.730Z,101228.33
2019-05-06T22:30:42.488Z,101232.69
2019-05-06T22:33:09.276Z,101225.18
2019-05-06T22:35:35.439Z,101222.05
2019-05-06T22:38:02.844Z,101222.05
2019-05-06T22:40:28.756Z,101219.88
2019-05-06T22:42:54.802Z,101214.59
2019-05-06T22:45:22.232Z,101210.62
2019-05-06T22:47:48.301Z,101209.74
2019-05-06T22:50:14.370Z,101201.02
2019-05-06T22:52:42.054Z,101199.59
2019-05-06T22:55:08.136Z,101198.22
2019-05-06T22:57:34.192Z,101204.05
2019-05-06T23:00:00.054Z,101203.57
2019-05-06T23:02:33.838Z,101197.93
2019-05-06T23:05:04.232Z,101196.21
2019-05-06T23:07:28.854Z,101193.08
2019-05-06T23:09:54.790Z,101188.27
2019-05-06T23:12:23.017Z,101181.22
2019-05-06T23:14:48.512Z,101181.72
2019-05-06T23:17:14.395Z,101187.89
2019-05-06T23:19:42.603Z,101183.92
2019-05-06T23:22:08.056Z,101184.37
2019-05-06T23:24:34.050Z,101184.80
2019-05-06T23:27:01.922Z,101179.13
2019-05-06T23:29:27.816Z,101174.77
2019-05-06T23:31:53.672Z,101174.31
2019-05-06T23:34:19.802Z,101165.55
2019-05-06T23:36:52.913Z,101173.09
2019-05-06T23:39:39.066Z,101168.30
2019-05-06T23:42:23.401Z,101162.23
2019-05-06T23:45:07.782Z,101159.24
2019-05-06T23:47:53.102Z,101169.88
2019-05-06T23:50:37.950Z,101164.98
2019-05-06T23:53:22.928Z,101163.61
2019-05-06T23:56:07.314Z,101161.02
2019-05-06T23:58:33.176Z,101159.73
